Time;durP1;ratioP1;P1;durP2;ratioP2;P2;SDS_P1;SDS_P2;PMS_P1;PMS_P2;Temp;Humidity;BMP_temperature;BMP_pressure;BME280_temperature;BME280_humidity;BME280_pressure;Samples;Min_cycle;Max_cycle;Signal;HPM_P1;HPM_P2
2022/07/24 00:01:07;;;;;;;40.43;28.37;;;19.10;99.90;;;;;;4429372;28;659980;-64
2022/07/24 00:03:56;;;;;;;46.70;31.53;;;19.10;99.90;;;;;;4446777;28;658741;-65
2022/07/24 00:06:44;;;;;;;44.20;30.23;;;19.10;99.90;;;;;;4446557;28;659318;-64
2022/07/24 00:09:31;;;;;;;51.87;33.07;;;19.30;99.90;;;;;;4428226;28;658487;-64
2022/07/24 00:12:18;;;;;;;47.63;31.03;;;19.30;99.90;;;;;;4451645;28;658689;-63
2022/07/24 00:15:06;;;;;;;47.05;33.10;;;19.40;99.90;;;;;;4432203;28;659007;-64
2022/07/24 00:17:53;;;;;;;49.40;32.33;;;19.40;99.90;;;;;;4448659;28;659131;-64
2022/07/24 00:20:41;;;;;;;48.47;31.80;;;19.40;99.90;;;;;;4430830;28;658945;-65
2022/07/24 00:23:29;;;;;;;46.97;32.17;;;19.50;99.90;;;;;;4446922;28;659065;-63
2022/07/24 00:26:16;;;;;;;56.13;35.67;;;19.40;99.90;;;;;;4427465;28;658553;-64
2022/07/24 00:29:03;;;;;;;59.83;38.13;;;19.20;99.90;;;;;;4433270;28;658783;-63
2022/07/24 00:31:50;;;;;;;59.50;39.43;;;19.30;99.90;;;;;;4420933;28;658791;-65
2022/07/24 00:34:37;;;;;;;61.88;40.10;;;19.20;99.90;;;;;;4441133;28;658797;-63
2022/07/24 00:37:27;;;;;;;58.50;38.77;;;19.30;99.90;;;;;;4446330;28;658913;-64
2022/07/24 00:40:15;;;;;;;63.23;40.80;;;19.30;99.90;;;;;;4423762;28;658829;-63
2022/07/24 00:43:02;;;;;;;67.40;42.63;;;19.40;99.90;;;;;;4421136;28;658882;-63
2022/07/24 00:45:50;;;;;;;68.20;42.63;;;19.30;99.90;;;;;;4439332;28;659150;-65
2022/07/24 00:48:37;;;;;;;66.60;41.42;;;19.30;99.90;;;;;;4450319;28;659064;-63
2022/07/24 00:51:24;;;;;;;69.03;41.57;;;19.30;99.90;;;;;;4441461;28;659351;-63
2022/07/24 00:54:13;;;;;;;64.03;39.73;;;19.30;99.90;;;;;;4424014;28;658809;-63
2022/07/24 00:57:00;;;;;;;58.33;38.88;;;19.40;99.90;;;;;;4427494;28;658744;-65
2022/07/24 00:59:47;;;;;;;54.47;38.03;;;19.40;99.90;;;;;;4445456;28;659476;-63
2022/07/24 01:02:34;;;;;;;58.40;38.90;;;19.30;99.90;;;;;;4441061;28;659061;-64
2022/07/24 01:05:21;;;;;;;53.63;36.43;;;19.30;99.90;;;;;;4427606;28;658806;-63
2022/07/24 01:08:08;;;;;;;61.87;37.07;;;19.30;99.90;;;;;;4446713;28;659757;-63
2022/07/24 01:10:57;;;;;;;56.10;37.77;;;19.30;99.90;;;;;;4426906;28;658968;-64
2022/07/24 01:13:44;;;;;;;54.87;36.77;;;19.20;99.90;;;;;;4428583;28;658937;-63
2022/07/24 01:16:31;;;;;;;55.50;36.23;;;19.30;99.90;;;;;;4426067;28;658862;-63
2022/07/24 01:19:18;;;;;;;51.17;37.10;;;19.20;99.90;;;;;;4446349;28;660453;-63
2022/07/24 01:22:07;;;;;;;62.20;38.20;;;19.10;99.90;;;;;;4426850;28;658766;-64
2022/07/24 01:24:54;;;;;;;61.93;38.10;;;19.10;99.90;;;;;;4445457;28;659467;-64
2022/07/24 01:27:41;;;;;;;53.73;37.37;;;19.10;99.90;;;;;;4409366;28;658823;-64
2022/07/24 01:30:28;;;;;;;51.63;36.40;;;19.10;99.90;;;;;;4431769;28;660949;-64
2022/07/24 01:33:15;;;;;;;47.90;35.53;;;19.00;99.90;;;;;;4418556;28;658804;-65
2022/07/24 01:36:02;;;;;;;49.23;33.37;;;19.00;99.90;;;;;;4450157;28;659818;-64
2022/07/24 01:38:51;;;;;;;55.90;33.80;;;19.00;99.90;;;;;;4445887;28;659072;-64
2022/07/24 01:41:38;;;;;;;48.70;34.00;;;19.00;99.90;;;;;;4422786;28;659013;-63
2022/07/24 01:44:25;;;;;;;42.67;29.87;;;18.80;99.90;;;;;;4427271;28;658746;-65
2022/07/24 01:47:12;;;;;;;44.50;31.70;;;18.80;99.90;;;;;;4436822;28;658563;-63
2022/07/24 01:49:59;;;;;;;43.43;29.53;;;18.90;99.90;;;;;;4417970;28;659134;-63
2022/07/24 01:52:46;;;;;;;44.37;31.43;;;18.80;99.90;;;;;;4397649;28;658532;-64
2022/07/24 01:55:35;;;;;;;43.37;29.13;;;18.80;99.90;;;;;;4428154;28;659136;-64
2022/07/24 01:58:22;;;;;;;38.07;26.40;;;18.70;99.90;;;;;;4422747;28;659597;-63
2022/07/24 02:01:09;;;;;;;38.43;28.03;;;18.70;99.90;;;;;;4418052;28;659207;-63
2022/07/24 02:03:56;;;;;;;40.43;26.57;;;18.60;99.90;;;;;;4402344;28;658607;-64
2022/07/24 02:06:43;;;;;;;47.40;29.17;;;18.50;99.90;;;;;;4427923;28;659192;-63
2022/07/24 02:09:30;;;;;;;38.90;28.67;;;18.50;99.90;;;;;;4408621;28;658535;-64
2022/07/24 02:12:19;;;;;;;42.67;29.60;;;18.40;99.90;;;;;;4444263;28;660215;-63
2022/07/24 02:15:07;;;;;;;41.67;29.37;;;18.30;99.90;;;;;;4425886;28;658484;-64
2022/07/24 02:17:55;;;;;;;46.25;29.98;;;18.20;99.90;;;;;;4444673;28;658689;-64
2022/07/24 02:20:42;;;;;;;45.20;30.67;;;18.10;99.90;;;;;;4422554;28;659338;-63
2022/07/24 02:23:29;;;;;;;44.57;28.30;;;18.10;99.90;;;;;;4445119;28;659209;-64
2022/07/24 02:26:17;;;;;;;41.90;28.27;;;18.10;99.90;;;;;;4426884;28;658887;-63
2022/07/24 02:29:05;;;;;;;40.77;28.57;;;18.00;99.90;;;;;;4445231;28;658845;-63
2022/07/24 02:31:52;;;;;;;41.17;26.80;;;17.90;99.90;;;;;;4409910;28;659866;-63
2022/07/24 02:34:39;;;;;;;31.70;21.93;;;17.80;99.90;;;;;;4435275;28;659234;-63
2022/07/24 02:37:27;;;;;;;33.97;21.47;;;17.70;99.90;;;;;;4425890;28;658656;-63
2022/07/24 02:40:14;;;;;;;33.13;23.03;;;17.60;99.90;;;;;;4444919;28;659333;-63
2022/07/24 02:43:01;;;;;;;34.07;22.40;;;17.60;99.90;;;;;;4395426;28;658836;-64
2022/07/24 02:45:50;;;;;;;36.77;23.90;;;17.50;99.90;;;;;;4439917;28;659917;-64
2022/07/24 02:48:37;;;;;;;39.10;25.60;;;17.50;99.90;;;;;;4426729;28;659253;-64
2022/07/24 02:51:24;;;;;;;36.93;23.60;;;17.40;99.90;;;;;;4437584;28;658607;-63
2022/07/24 02:54:11;;;;;;;38.10;23.83;;;17.30;99.90;;;;;;4417754;28;658814;-64
2022/07/24 02:56:58;;;;;;;34.67;21.87;;;17.20;99.90;;;;;;4444929;28;659041;-64
2022/07/24 02:59:49;;;;;;;35.50;22.20;;;17.20;99.90;;;;;;4425874;28;658702;-64
2022/07/24 03:02:38;;;;;;;34.90;22.33;;;17.10;99.90;;;;;;4424153;28;659823;-64
2022/07/24 03:05:25;;;;;;;32.53;21.83;;;17.10;99.90;;;;;;4425889;28;658997;-65
2022/07/24 03:08:12;;;;;;;40.63;21.90;;;17.00;99.90;;;;;;4449303;28;658388;-64
2022/07/24 03:10:59;;;;;;;37.57;20.50;;;16.90;99.90;;;;;;4447857;28;658916;-63
2022/07/24 03:13:46;;;;;;;32.60;19.53;;;16.90;99.90;;;;;;4407630;28;658754;-64
2022/07/24 03:16:33;;;;;;;29.53;18.83;;;16.90;99.90;;;;;;4445978;28;659663;-64
2022/07/24 03:19:22;;;;;;;31.50;19.37;;;16.80;99.90;;;;;;4429473;28;658637;-65
2022/07/24 03:22:09;;;;;;;30.03;19.67;;;16.80;99.90;;;;;;4430546;28;659379;-63
2022/07/24 03:24:56;;;;;;;31.90;19.80;;;16.70;99.90;;;;;;4412363;28;658658;-64
2022/07/24 03:27:43;;;;;;;32.90;19.77;;;16.60;99.90;;;;;;4452210;28;659990;-65
2022/07/24 03:30:30;;;;;;;35.70;21.13;;;16.70;99.90;;;;;;4415063;28;658443;-64
2022/07/24 03:33:17;;;;;;;38.80;21.53;;;16.70;99.90;;;;;;4442827;28;658577;-64
2022/07/24 03:36:08;;;;;;;34.47;21.93;;;16.60;99.90;;;;;;4435504;28;659473;-64
2022/07/24 03:38:55;;;;;;;40.33;23.33;;;16.60;99.90;;;;;;4405730;28;659461;-66
2022/07/24 03:41:42;;;;;;;39.77;21.90;;;16.50;99.90;;;;;;4451770;28;659296;-64
2022/07/24 03:44:29;;;;;;;35.77;22.53;;;16.50;99.90;;;;;;4433268;28;659085;-64
2022/07/24 03:47:16;;;;;;;33.30;21.67;;;16.60;99.90;;;;;;4428533;28;658435;-64
2022/07/24 03:50:04;;;;;;;33.80;21.60;;;16.50;99.90;;;;;;4414031;28;659859;-64
2022/07/24 03:52:53;;;;;;;33.47;20.70;;;16.60;99.90;;;;;;4393702;28;658768;-63
2022/07/24 03:55:40;;;;;;;33.17;20.50;;;16.50;99.90;;;;;;4389057;28;658980;-65
2022/07/24 03:58:27;;;;;;;28.87;19.00;;;16.50;99.90;;;;;;4417545;28;658891;-64
2022/07/24 04:01:14;;;;;;;27.43;18.17;;;16.50;99.90;;;;;;4400824;28;658620;-64
2022/07/24 04:04:04;;;;;;;28.77;19.13;;;16.50;99.90;;;;;;4394791;28;658647;-64
2022/07/24 04:06:51;;;;;;;30.13;18.93;;;16.60;99.90;;;;;;4394435;28;658636;-64
2022/07/24 04:09:40;;;;;;;27.47;18.53;;;16.60;99.90;;;;;;4413013;28;660141;-64
2022/07/24 04:12:27;;;;;;;32.57;17.83;;;16.70;99.90;;;;;;4395025;28;658866;-64
2022/07/24 04:15:14;;;;;;;30.53;18.17;;;16.70;99.90;;;;;;4401815;28;658746;-63
2022/07/24 04:18:01;;;;;;;29.03;17.27;;;16.70;99.90;;;;;;4394377;28;658693;-64
2022/07/24 04:20:48;;;;;;;32.50;18.77;;;16.70;99.90;;;;;;4412932;28;660030;-64
2022/07/24 04:23:35;;;;;;;26.10;17.57;;;16.70;99.90;;;;;;4394591;28;658861;-64
2022/07/24 04:26:24;;;;;;;28.33;17.53;;;16.60;99.90;;;;;;4412931;28;660036;-63
2022/07/24 04:29:11;;;;;;;29.05;17.42;;;16.60;99.90;;;;;;4386264;28;658992;-64
2022/07/24 04:31:58;;;;;;;28.63;18.27;;;16.80;99.90;;;;;;4402814;28;658971;-64
2022/07/24 04:34:45;;;;;;;30.83;16.97;;;16.80;99.90;;;;;;4384851;28;658944;-64
2022/07/24 04:37:32;;;;;;;28.97;18.23;;;16.90;99.90;;;;;;4411547;28;659285;-64
2022/07/24 04:40:20;;;;;;;29.00;18.10;;;16.80;99.90;;;;;;4407812;28;658711;-65
2022/07/24 04:43:09;;;;;;;31.80;17.10;;;16.80;99.90;;;;;;4410074;28;659070;-66
2022/07/24 04:45:56;;;;;;;30.90;16.97;;;16.90;99.90;;;;;;4389463;28;659485;-64
2022/07/24 04:48:43;;;;;;;24.67;15.67;;;17.00;99.90;;;;;;4428512;28;659393;-64
2022/07/24 04:51:30;;;;;;;25.20;16.50;;;17.00;99.90;;;;;;4425416;28;658814;-66
2022/07/24 04:54:17;;;;;;;23.08;15.52;;;17.00;99.90;;;;;;4447925;28;659051;-64
2022/07/24 04:57:04;;;;;;;19.70;15.03;;;17.10;99.90;;;;;;4429143;28;658171;-64
2022/07/24 04:59:53;;;;;;;21.90;14.40;;;17.20;99.90;;;;;;4410178;28;659453;-64
2022/07/24 05:02:40;;;;;;;25.87;14.93;;;17.20;99.90;;;;;;4425369;28;659153;-65
2022/07/24 05:05:27;;;;;;;24.60;14.77;;;17.20;99.90;;;;;;4450738;28;658384;-64
2022/07/24 05:08:14;;;;;;;18.00;13.43;;;17.30;99.90;;;;;;4445767;28;658920;-64
2022/07/24 05:11:01;;;;;;;17.23;12.87;;;17.40;99.90;;;;;;4426961;28;659072;-63
2022/07/24 05:13:49;;;;;;;18.37;12.13;;;17.50;99.90;;;;;;4445907;28;659112;-64
2022/07/24 05:16:37;;;;;;;19.03;13.37;;;17.60;99.90;;;;;;4427402;28;658909;-64
2022/07/24 05:19:24;;;;;;;18.50;11.97;;;17.60;99.90;;;;;;4446232;28;658513;-64
2022/07/24 05:22:11;;;;;;;16.77;11.47;;;17.60;99.90;;;;;;4412017;28;658611;-64
2022/07/24 05:24:58;;;;;;;22.50;11.30;;;17.70;99.90;;;;;;4445842;28;659517;-64
2022/07/24 05:27:45;;;;;;;17.80;11.70;;;17.80;99.90;;;;;;4426303;28;658658;-64
2022/07/24 05:30:32;;;;;;;14.57;10.67;;;17.80;99.90;;;;;;4430547;28;659533;-64
2022/07/24 05:33:21;;;;;;;17.50;11.20;;;17.90;99.90;;;;;;4416915;28;658508;-65
2022/07/24 05:36:09;;;;;;;17.47;10.97;;;17.90;99.90;;;;;;4445473;28;658836;-64
2022/07/24 05:38:56;;;;;;;14.03;10.23;;;18.00;99.90;;;;;;4405484;28;659373;-64
2022/07/24 05:41:43;;;;;;;16.20;10.00;;;18.00;99.90;;;;;;4428322;28;659564;-64
2022/07/24 05:44:30;;;;;;;14.20;9.03;;;18.10;99.90;;;;;;4404770;28;658850;-64
2022/07/24 05:47:18;;;;;;;15.77;10.23;;;18.20;99.90;;;;;;4442297;28;658952;-64
2022/07/24 05:50:08;;;;;;;17.47;9.03;;;18.10;99.90;;;;;;4438171;28;658920;-65
2022/07/24 05:52:55;;;;;;;16.17;9.83;;;18.20;99.90;;;;;;4409652;28;657818;-64
2022/07/24 05:55:43;;;;;;;16.53;9.60;;;18.30;99.90;;;;;;4446499;28;659510;-64
2022/07/24 05:58:30;;;;;;;15.77;8.93;;;18.30;99.90;;;;;;4405050;28;658165;-66
2022/07/24 06:01:17;;;;;;;14.93;9.53;;;18.20;99.90;;;;;;4437985;28;657535;-64
2022/07/24 06:04:04;;;;;;;12.50;8.57;;;18.40;99.90;;;;;;4446520;28;657756;-63
2022/07/24 06:06:53;;;;;;;11.67;7.20;;;18.50;99.90;;;;;;4410190;28;658377;-64
2022/07/24 06:09:40;;;;;;;11.63;7.87;;;18.50;99.90;;;;;;4427271;28;657602;-65
2022/07/24 06:12:27;;;;;;;14.20;8.60;;;18.50;99.90;;;;;;4450298;28;657119;-64
2022/07/24 06:15:14;;;;;;;16.37;7.80;;;18.40;99.90;;;;;;4428526;28;657811;-64
2022/07/24 06:18:01;;;;;;;10.27;7.43;;;18.70;99.90;;;;;;4408286;28;657409;-64
2022/07/24 06:20:48;;;;;;;12.17;6.97;;;18.90;99.90;;;;;;4446836;28;658540;-64
2022/07/24 06:23:37;;;;;;;9.77;7.03;;;19.10;99.90;;;;;;4427316;28;657454;-64
2022/07/24 06:26:24;;;;;;;17.07;6.80;;;19.20;99.90;;;;;;4429775;28;656476;-64
2022/07/24 06:29:11;;;;;;;12.13;6.40;;;19.30;99.90;;;;;;4425363;28;657801;-64
2022/07/24 06:31:58;;;;;;;11.00;6.40;;;19.10;99.90;;;;;;4433469;28;658448;-65
2022/07/24 06:34:46;;;;;;;10.60;6.27;;;19.10;99.90;;;;;;4419195;28;657377;-64
2022/07/24 06:37:33;;;;;;;9.23;5.87;;;19.10;99.90;;;;;;4431029;28;658464;-64
2022/07/24 06:40:21;;;;;;;9.23;6.13;;;19.30;99.90;;;;;;4438558;28;656661;-64
2022/07/24 06:43:08;;;;;;;9.13;6.07;;;19.50;99.90;;;;;;4438115;28;657085;-64
2022/07/24 06:45:56;;;;;;;13.03;5.83;;;19.70;99.90;;;;;;4419475;28;658246;-63
2022/07/24 06:48:43;;;;;;;12.67;6.30;;;20.00;99.90;;;;;;4453316;28;658755;-64
2022/07/24 06:51:30;;;;;;;8.67;5.87;;;20.20;99.90;;;;;;4431153;28;657609;-65
2022/07/24 06:54:17;;;;;;;11.63;5.70;;;20.30;99.90;;;;;;4449557;28;656310;-65
2022/07/24 06:57:06;;;;;;;13.47;5.57;;;20.40;99.90;;;;;;4449605;28;657134;-63
2022/07/24 06:59:53;;;;;;;9.40;5.90;;;20.60;99.90;;;;;;4408860;28;658051;-64
2022/07/24 07:02:40;;;;;;;12.27;6.23;;;20.70;99.90;;;;;;4427672;28;657012;-64
2022/07/24 07:05:27;;;;;;;11.17;6.10;;;20.80;99.90;;;;;;4453937;28;657830;-63
2022/07/24 07:08:14;;;;;;;12.80;9.10;;;20.90;99.90;;;;;;4449182;28;657904;-64
2022/07/24 07:11:01;;;;;;;15.87;9.67;;;21.20;99.90;;;;;;4413169;28;657929;-63
2022/07/24 07:13:50;;;;;;;12.00;8.13;;;21.00;99.90;;;;;;4449396;28;658461;-64
2022/07/24 07:16:37;;;;;;;13.70;8.17;;;21.00;99.90;;;;;;4426614;28;659861;-64
2022/07/24 07:19:24;;;;;;;17.33;7.17;;;20.70;99.90;;;;;;4448980;28;657843;-63
2022/07/24 07:22:11;;;;;;;12.00;7.17;;;20.60;99.90;;;;;;4430439;28;657904;-64
2022/07/24 07:24:58;;;;;;;15.03;9.40;;;20.30;99.90;;;;;;4449061;28;659339;-64
2022/07/24 07:27:45;;;;;;;17.07;8.73;;;20.40;99.90;;;;;;4429597;28;657666;-64
2022/07/24 07:30:34;;;;;;;14.97;7.10;;;20.60;99.90;;;;;;4450923;28;658341;-64
2022/07/24 07:33:21;;;;;;;12.87;6.43;;;20.90;99.90;;;;;;4405625;28;657592;-64
2022/07/24 07:36:09;;;;;;;11.47;6.07;;;21.00;99.90;;;;;;4419970;28;658681;-64
2022/07/24 07:38:57;;;;;;;10.80;5.80;;;21.30;99.90;;;;;;4430007;28;657436;-64
2022/07/24 07:41:44;;;;;;;12.60;6.33;;;21.50;99.90;;;;;;4449108;28;657863;-64
2022/07/24 07:44:31;;;;;;;11.40;6.17;;;20.90;99.90;;;;;;4430213;28;657894;-64
2022/07/24 07:47:20;;;;;;;11.93;6.27;;;20.60;99.90;;;;;;4443913;28;658688;-64
2022/07/24 07:50:07;;;;;;;9.57;5.53;;;20.80;99.90;;;;;;4430214;28;658844;-64
2022/07/24 07:52:55;;;;;;;11.00;5.60;;;21.00;99.90;;;;;;4443559;28;656479;-65
2022/07/24 07:55:42;;;;;;;11.83;6.60;;;21.10;99.90;;;;;;4451750;28;658020;-64
2022/07/24 07:58:29;;;;;;;9.80;6.13;;;21.50;99.90;;;;;;4438563;28;657513;-64
2022/07/24 08:01:17;;;;;;;11.20;5.57;;;22.10;99.90;;;;;;4413476;28;656881;-64
2022/07/24 08:04:05;;;;;;;10.50;5.70;;;22.70;99.90;;;;;;4448352;28;657953;-64
2022/07/24 08:06:52;;;;;;;6.50;4.50;;;22.70;99.90;;;;;;4426268;28;658545;-64
2022/07/24 08:09:39;;;;;;;10.73;5.30;;;23.00;99.90;;;;;;4449008;28;656575;-64
2022/07/24 08:12:26;;;;;;;7.33;5.00;;;22.20;99.90;;;;;;4429210;28;657761;-64
2022/07/24 08:15:14;;;;;;;7.93;4.70;;;21.70;99.90;;;;;;4437707;28;656948;-64
2022/07/24 08:18:01;;;;;;;6.53;4.90;;;21.70;99.90;;;;;;4430513;28;658148;-64
2022/07/24 08:20:49;;;;;;;6.97;4.30;;;21.90;99.90;;;;;;4435283;28;658289;-64
2022/07/24 08:23:36;;;;;;;5.57;4.00;;;22.30;99.90;;;;;;4429163;28;656918;-64
2022/07/24 08:26:23;;;;;;;7.07;5.20;;;21.90;99.30;;;;;;4449049;28;658174;-64
2022/07/24 08:29:10;;;;;;;12.47;5.27;;;22.00;99.90;;;;;;4414685;28;656753;-64
2022/07/24 08:31:57;;;;;;;12.23;4.50;;;22.40;99.90;;;;;;4433995;28;658913;-64
2022/07/24 08:34:45;;;;;;;5.30;4.00;;;22.30;97.60;;;;;;4410147;28;657564;-65
2022/07/24 08:37:37;;;;;;;7.70;4.93;;;22.40;97.20;;;;;;4435267;28;656698;-64
2022/07/24 08:40:24;;;;;;;6.20;4.93;;;22.40;99.90;;;;;;4426395;28;657094;-64
2022/07/24 08:43:11;;;;;;;6.80;4.60;;;22.30;99.90;;;;;;4406527;28;656618;-64
2022/07/24 08:45:58;;;;;;;7.70;5.10;;;22.10;98.00;;;;;;4446457;28;657173;-64
2022/07/24 08:48:46;;;;;;;9.10;5.73;;;22.00;99.90;;;;;;4430049;28;656705;-64
2022/07/24 08:51:34;;;;;;;7.13;5.87;;;21.90;99.90;;;;;;4449214;28;657537;-64
2022/07/24 08:54:22;;;;;;;9.00;6.17;;;22.10;98.90;;;;;;4429455;28;656632;-64
2022/07/24 08:57:09;;;;;;;8.03;6.30;;;22.80;99.70;;;;;;4448702;28;656742;-65
2022/07/24 08:59:56;;;;;;;9.53;6.53;;;22.90;99.90;;;;;;4430062;28;656741;-64
2022/07/24 09:02:43;;;;;;;9.90;6.70;;;23.40;97.50;;;;;;4449207;28;656755;-64
2022/07/24 09:05:32;;;;;;;8.03;6.27;;;23.90;92.70;;;;;;4411408;28;656608;-64
2022/07/24 09:08:19;;;;;;;8.40;6.50;;;23.80;85.40;;;;;;4449072;28;656563;-63
2022/07/24 09:11:09;;;;;;;8.10;5.17;;;23.80;87.10;;;;;;4429835;28;656575;-64
2022/07/24 09:17:07;;;;;;;6.17;5.50;;;24.00;86.30;;;;;;4417443;28;657538;-64
2022/07/24 09:19:55;;;;;;;6.83;5.17;;;23.70;82.50;;;;;;4448676;28;656554;-64
2022/07/24 09:22:42;;;;;;;10.03;5.33;;;23.60;86.80;;;;;;4426022;28;657746;-64
2022/07/24 09:25:29;;;;;;;8.87;4.90;;;23.10;87.70;;;;;;4447146;28;657305;-65
2022/07/24 09:28:19;;;;;;;6.83;4.77;;;23.60;87.80;;;;;;4411899;28;656571;-64
2022/07/24 09:31:06;;;;;;;9.57;4.80;;;23.00;90.50;;;;;;4404978;28;656714;-64
2022/07/24 09:33:53;;;;;;;7.37;4.27;;;23.60;91.60;;;;;;4442772;28;657729;-64
2022/07/24 09:36:41;;;;;;;7.97;4.20;;;23.60;84.70;;;;;;4421595;28;656356;-65
2022/07/24 09:39:29;;;;;;;6.33;4.63;;;23.00;87.20;;;;;;4451993;28;658422;-64
2022/07/24 09:42:17;;;;;;;8.53;4.20;;;22.70;90.70;;;;;;4413534;28;656812;-64
2022/07/24 09:45:08;;;;;;;7.50;4.50;;;23.20;89.70;;;;;;4429247;28;657226;-64
2022/07/24 09:47:55;;;;;;;5.00;4.23;;;24.10;90.70;;;;;;4400832;28;657178;-64
2022/07/24 09:50:50;;;;;;;8.40;4.30;;;25.20;89.80;;;;;;4418836;28;657193;-64
2022/07/24 09:53:37;;;;;;;5.97;3.90;;;25.00;83.70;;;;;;4374222;28;657337;-64
2022/07/24 09:56:24;;;;;;;6.43;4.00;;;22.70;86.90;;;;;;4431567;28;656446;-64
2022/07/24 09:59:13;;;;;;;6.10;3.93;;;22.80;87.20;;;;;;4424269;28;657523;-64
2022/07/24 10:02:01;;;;;;;7.33;4.10;;;23.20;84.90;;;;;;4453859;28;656496;-65
2022/07/24 10:04:49;;;;;;;6.43;3.90;;;24.20;81.80;;;;;;4465796;28;656698;-65
2022/07/24 10:07:36;;;;;;;4.37;3.80;;;24.30;83.60;;;;;;4441634;28;656287;-64
2022/07/24 10:10:24;;;;;;;6.97;4.17;;;24.40;79.00;;;;;;4465198;28;658117;-64
2022/07/24 10:13:11;;;;;;;8.90;4.33;;;24.00;79.70;;;;;;4445281;28;656874;-64
2022/07/24 10:16:11;;;;;;;6.23;4.10;;;23.30;84.80;;;;;;4467721;28;656149;-64
2022/07/24 10:19:00;;;;;;;5.07;3.70;;;23.90;90.50;;;;;;4442423;28;657367;-65
2022/07/24 10:21:51;;;;;;;7.23;4.30;;;25.10;81.40;;;;;;4445311;28;656644;-64
2022/07/24 10:24:56;;;;;;;5.50;3.83;;;25.20;78.20;;;;;;4446287;28;657674;-64
2022/07/24 10:27:43;;;;;;;9.05;4.13;;;25.20;73.30;;;;;;4442854;28;657133;-64
2022/07/24 10:30:30;;;;;;;6.88;4.75;;;25.60;76.30;;;;;;4442592;28;656572;-64
2022/07/24 10:33:18;;;;;;;5.95;4.05;;;24.40;73.30;;;;;;4439310;28;658085;-64
2022/07/24 10:36:11;;;;;;;8.83;4.30;;;23.60;77.40;;;;;;4407427;28;656861;-65
2022/07/24 10:39:01;;;;;;;5.90;4.20;;;23.30;84.00;;;;;;4406984;28;656512;-63
2022/07/24 10:42:01;;;;;;;6.37;4.73;;;23.20;83.10;;;;;;4424290;28;657716;-63
2022/07/24 10:45:13;;;;;;;7.20;4.63;;;22.90;82.30;;;;;;4414318;28;657542;-64
2022/07/24 10:48:03;;;;;;;7.53;4.30;;;23.40;89.00;;;;;;4393481;28;656917;-65
2022/07/24 10:51:13;;;;;;;6.20;4.20;;;23.90;74.70;;;;;;4428492;28;656509;-65
2022/07/24 10:54:00;;;;;;;5.00;4.23;;;24.80;72.20;;;;;;4414590;28;656525;-65
2022/07/24 10:56:48;;;;;;;5.40;3.97;;;25.10;74.80;;;;;;4451841;28;656755;-64
2022/07/24 10:59:37;;;;;;;6.15;4.40;;;24.00;78.80;;;;;;4427248;28;656207;-64
2022/07/24 11:02:28;;;;;;;6.07;4.43;;;23.90;77.30;;;;;;4446915;28;656988;-63
2022/07/24 11:05:25;;;;;;;7.20;4.55;;;23.60;79.90;;;;;;4428729;28;656238;-65
2022/07/24 11:08:34;;;;;;;9.27;4.28;;;24.20;81.90;;;;;;4424115;28;656674;-64
2022/07/24 11:11:21;;;;;;;6.57;4.43;;;24.80;74.10;;;;;;4425256;28;656678;-64
2022/07/24 11:14:08;;;;;;;5.13;4.30;;;25.80;77.70;;;;;;4440258;28;657415;-64
2022/07/24 11:16:55;;;;;;;4.18;3.40;;;26.70;72.10;;;;;;4427143;28;656255;-65
2022/07/24 11:19:42;;;;;;;4.72;3.50;;;26.90;68.60;;;;;;4446008;28;657912;-64
2022/07/24 11:22:38;;;;;;;6.20;4.00;;;26.30;65.70;;;;;;4438459;28;656372;-64
2022/07/24 11:25:27;;;;;;;4.70;3.97;;;26.70;67.10;;;;;;4405295;28;657674;-64
2022/07/24 11:28:15;;;;;;;5.00;4.07;;;26.70;65.40;;;;;;4444756;28;656689;-65
2022/07/24 11:31:02;;;;;;;5.43;4.20;;;24.80;67.10;;;;;;4442936;28;657435;-63
2022/07/24 11:33:49;;;;;;;6.47;4.43;;;23.70;73.90;;;;;;4429944;28;656564;-64
2022/07/24 11:36:37;;;;;;;6.60;4.35;;;24.40;73.30;;;;;;4431503;28;657641;-64
2022/07/24 11:39:27;;;;;;;4.70;3.90;;;25.70;72.10;;;;;;4445263;28;656163;-64
2022/07/24 11:42:16;;;;;;;7.70;4.18;;;25.30;63.60;;;;;;4410700;28;656596;-64
2022/07/24 11:45:04;;;;;;;6.55;4.15;;;25.50;61.40;;;;;;4402306;28;656994;-64
2022/07/24 11:47:54;;;;;;;8.95;4.35;;;25.30;59.90;;;;;;4413039;28;656702;-64
2022/07/24 11:50:41;;;;;;;7.30;4.43;;;24.80;64.00;;;;;;4430587;28;656982;-64
2022/07/24 11:53:28;;;;;;;5.88;4.00;;;24.90;67.20;;;;;;4440596;28;657759;-64
2022/07/24 11:56:17;;;;;;;6.95;4.40;;;24.70;68.90;;;;;;4434488;28;656435;-65
2022/07/24 11:59:05;;;;;;;7.32;4.57;;;25.60;69.70;;;;;;4448182;28;656829;-63
2022/07/24 12:01:56;;;;;;;8.48;3.90;;;24.90;68.10;;;;;;4426886;28;657542;-64
2022/07/24 12:04:43;;;;;;;5.63;3.90;;;25.40;63.50;;;;;;4431221;28;657655;-64
2022/07/24 12:07:31;;;;;;;6.90;3.63;;;26.00;64.90;;;;;;4431264;28;656694;-64
2022/07/24 12:10:20;;;;;;;8.18;3.78;;;26.40;59.00;;;;;;4443411;28;656755;-63
2022/07/24 12:13:07;;;;;;;5.72;3.97;;;26.40;57.70;;;;;;4414782;28;656644;-65
2022/07/24 12:15:56;;;;;;;4.40;3.63;;;26.40;58.10;;;;;;4449831;28;656966;-63
2022/07/24 12:18:43;;;;;;;5.97;3.50;;;26.50;61.50;;;;;;4430684;28;656904;-64
2022/07/24 12:21:30;;;;;;;4.22;3.55;;;26.60;59.80;;;;;;4422370;28;656821;-65
2022/07/24 12:24:17;;;;;;;6.13;3.45;;;26.30;58.60;;;;;;4453770;28;656745;-63
2022/07/24 12:27:05;;;;;;;5.03;3.35;;;26.50;60.30;;;;;;4430415;28;656619;-64
2022/07/24 12:29:52;;;;;;;6.30;3.80;;;26.10;59.10;;;;;;4435825;28;657364;-64
2022/07/24 12:32:53;;;;;;;8.98;3.47;;;26.80;58.20;;;;;;4431570;28;657093;-63
2022/07/24 12:35:53;;;;;;;4.60;3.20;;;26.90;58.70;;;;;;4396400;28;656766;-64
2022/07/24 12:38:44;;;;;;;4.55;3.20;;;26.90;57.50;;;;;;4405587;28;657172;-64
2022/07/24 12:41:31;;;;;;;4.10;3.47;;;27.40;56.50;;;;;;4418043;28;656298;-64
2022/07/24 12:44:18;;;;;;;6.25;3.30;;;26.90;56.40;;;;;;4421212;28;656926;-63
2022/07/24 12:47:05;;;;;;;7.95;3.40;;;26.70;59.50;;;;;;4428226;28;656690;-64
2022/07/24 12:49:54;;;;;;;5.38;3.70;;;26.00;58.10;;;;;;4431028;28;657793;-63
2022/07/24 12:52:41;;;;;;;5.18;3.38;;;26.50;59.30;;;;;;4417534;28;656775;-63
2022/07/24 12:55:28;;;;;;;5.35;3.13;;;26.30;57.10;;;;;;4448888;28;657427;-64
2022/07/24 12:58:15;;;;;;;4.97;3.67;;;26.70;58.20;;;;;;4411644;28;656492;-64
2022/07/24 13:01:02;;;;;;;5.78;3.13;;;26.30;56.00;;;;;;4430498;28;657387;-64
2022/07/24 13:03:52;;;;;;;3.38;2.88;;;27.00;56.00;;;;;;4447016;28;656649;-65
2022/07/24 13:06:43;;;;;;;5.68;3.45;;;26.50;56.60;;;;;;4435258;28;657475;-63
2022/07/24 13:09:30;;;;;;;4.43;3.00;;;26.90;56.10;;;;;;4419929;28;656717;-64
2022/07/24 13:12:17;;;;;;;3.05;2.72;;;27.40;53.10;;;;;;4453053;28;657161;-63
2022/07/24 13:15:06;;;;;;;5.97;2.97;;;27.00;53.50;;;;;;4447682;28;656069;-64
2022/07/24 13:17:53;;;;;;;3.03;2.72;;;26.60;53.10;;;;;;4448790;28;657286;-64
2022/07/24 13:20:40;;;;;;;2.85;2.42;;;27.00;58.10;;;;;;4416543;28;656471;-63
2022/07/24 13:23:29;;;;;;;5.10;2.90;;;27.90;54.80;;;;;;4428972;28;657846;-63
2022/07/24 13:26:16;;;;;;;4.70;2.30;;;27.50;53.50;;;;;;4429994;28;657502;-64
2022/07/24 13:29:03;;;;;;;3.95;2.58;;;27.40;54.10;;;;;;4464191;28;657083;-63
2022/07/24 13:31:50;;;;;;;5.25;2.20;;;27.70;55.50;;;;;;4423399;28;656699;-64
2022/07/24 13:34:37;;;;;;;3.60;2.35;;;27.60;52.20;;;;;;4434530;28;657107;-63
2022/07/24 13:37:25;;;;;;;2.97;2.10;;;27.80;53.50;;;;;;4446147;28;656731;-64
2022/07/24 13:40:13;;;;;;;3.63;2.25;;;27.60;51.70;;;;;;4429550;28;656596;-63
2022/07/24 13:43:00;;;;;;;7.80;2.10;;;26.00;52.10;;;;;;4429765;28;656897;-64
2022/07/24 13:45:47;;;;;;;2.50;2.20;;;26.60;55.90;;;;;;4448240;28;657614;-63
2022/07/24 13:48:35;;;;;;;2.20;2.00;;;26.60;54.00;;;;;;4443005;28;656504;-64
2022/07/24 13:51:23;;;;;;;4.95;2.10;;;26.80;53.60;;;;;;4439868;28;656923;-63
2022/07/24 13:54:10;;;;;;;5.47;2.33;;;26.90;52.50;;;;;;4429556;28;656682;-64
2022/07/24 13:57:01;;;;;;;4.43;2.17;;;27.40;53.60;;;;;;4447460;28;657035;-63
2022/07/24 13:59:48;;;;;;;5.80;2.17;;;26.80;54.80;;;;;;4425315;28;658181;-63
2022/07/24 14:02:35;;;;;;;2.78;2.13;;;27.90;57.70;;;;;;4428856;28;656952;-64
2022/07/24 14:05:22;;;;;;;2.75;1.80;;;28.70;55.40;;;;;;4433912;28;657620;-64
2022/07/24 14:08:09;;;;;;;2.97;2.10;;;28.50;52.80;;;;;;4430185;28;656428;-64
2022/07/24 14:10:56;;;;;;;4.45;2.05;;;28.10;51.90;;;;;;4428863;28;656523;-64
2022/07/24 14:13:45;;;;;;;2.63;1.80;;;27.90;50.20;;;;;;4447458;28;656240;-63
2022/07/24 14:16:32;;;;;;;3.55;1.80;;;27.70;50.50;;;;;;4428644;28;657613;-63